sensor_id;sensor_type;location;lat;lon;timestamp;P1;P2;P0
62236;PMS5003;69163;48.778;2.308;2024-01-16T00:02:16;15;15;
62236;PMS5003;69163;48.778;2.308;2024-01-16T00:04:42;16;16;
62236;PMS5003;69163;48.778;2.308;2024-01-16T00:07:07;17;17;
62236;PMS5003;69163;48.778;2.308;2024-01-16T00:09:32;18;18;
62236;PMS5003;69163;48.778;2.308;2024-01-16T00:11:57;17;15;
62236;PMS5003;69163;48.778;2.308;2024-01-16T00:14:23;16;16;
62236;PMS5003;69163;48.778;2.308;2024-01-16T00:16:49;14;14;
62236;PMS5003;69163;48.778;2.308;2024-01-16T00:19:14;19;17;
62236;PMS5003;69163;48.778;2.308;2024-01-16T00:21:40;17;16;
62236;PMS5003;69163;48.778;2.308;2024-01-16T00:24:05;18;16;
62236;PMS5003;69163;48.778;2.308;2024-01-16T00:26:31;21;18;
62236;PMS5003;69163;48.778;2.308;2024-01-16T00:28:56;18;16;
62236;PMS5003;69163;48.778;2.308;2024-01-16T00:31:22;13;11;
62236;PMS5003;69163;48.778;2.308;2024-01-16T00:33:47;18;15;
62236;PMS5003;69163;48.778;2.308;2024-01-16T00:36:12;18;18;
62236;PMS5003;69163;48.778;2.308;2024-01-16T00:38:37;17;15;
62236;PMS5003;69163;48.778;2.308;2024-01-16T00:41:02;17;17;
62236;PMS5003;69163;48.778;2.308;2024-01-16T00:43:27;17;15;
62236;PMS5003;69163;48.778;2.308;2024-01-16T00:45:52;18;17;
62236;PMS5003;69163;48.778;2.308;2024-01-16T00:48:18;18;16;
62236;PMS5003;69163;48.778;2.308;2024-01-16T00:50:43;14;14;
62236;PMS5003;69163;48.778;2.308;2024-01-16T00:53:08;19;18;
62236;PMS5003;69163;48.778;2.308;2024-01-16T00:55:34;16;15;
62236;PMS5003;69163;48.778;2.308;2024-01-16T00:57:59;21;19;
62236;PMS5003;69163;48.778;2.308;2024-01-16T01:00:24;17;16;
62236;PMS5003;69163;48.778;2.308;2024-01-16T01:02:50;17;16;
62236;PMS5003;69163;48.778;2.308;2024-01-16T01:05:15;17;17;
62236;PMS5003;69163;48.778;2.308;2024-01-16T01:07:40;16;16;
62236;PMS5003;69163;48.778;2.308;2024-01-16T01:10:05;14;14;
62236;PMS5003;69163;48.778;2.308;2024-01-16T01:12:31;16;16;
62236;PMS5003;69163;48.778;2.308;2024-01-16T01:14:56;16;14;
62236;PMS5003;69163;48.778;2.308;2024-01-16T01:17:22;17;17;
62236;PMS5003;69163;48.778;2.308;2024-01-16T01:19:47;15;15;
62236;PMS5003;69163;48.778;2.308;2024-01-16T01:22:13;18;17;
62236;PMS5003;69163;48.778;2.308;2024-01-16T01:24:39;19;17;
62236;PMS5003;69163;48.778;2.308;2024-01-16T01:27:05;15;15;
62236;PMS5003;69163;48.778;2.308;2024-01-16T01:29:30;15;15;
62236;PMS5003;69163;48.778;2.308;2024-01-16T01:31:56;16;15;
62236;PMS5003;69163;48.778;2.308;2024-01-16T01:34:21;17;16;
62236;PMS5003;69163;48.778;2.308;2024-01-16T01:36:47;14;14;
62236;PMS5003;69163;48.778;2.308;2024-01-16T01:39:12;17;17;
62236;PMS5003;69163;48.778;2.308;2024-01-16T01:41:38;22;19;
62236;PMS5003;69163;48.778;2.308;2024-01-16T01:44:03;22;19;
62236;PMS5003;69163;48.778;2.308;2024-01-16T01:46:29;12;12;
62236;PMS5003;69163;48.778;2.308;2024-01-16T01:48:54;17;17;
62236;PMS5003;69163;48.778;2.308;2024-01-16T01:51:19;20;19;
62236;PMS5003;69163;48.778;2.308;2024-01-16T01:53:47;15;15;
62236;PMS5003;69163;48.778;2.308;2024-01-16T01:56:11;17;17;
62236;PMS5003;69163;48.778;2.308;2024-01-16T01:58:35;17;16;
62236;PMS5003;69163;48.778;2.308;2024-01-16T02:01:01;19;16;
62236;PMS5003;69163;48.778;2.308;2024-01-16T02:03:26;21;16;
62236;PMS5003;69163;48.778;2.308;2024-01-16T02:05:51;15;14;
62236;PMS5003;69163;48.778;2.308;2024-01-16T02:08:17;16;16;
62236;PMS5003;69163;48.778;2.308;2024-01-16T02:10:42;18;18;
62236;PMS5003;69163;48.778;2.308;2024-01-16T02:13:08;18;16;
62236;PMS5003;69163;48.778;2.308;2024-01-16T02:15:33;18;16;
62236;PMS5003;69163;48.778;2.308;2024-01-16T02:17:59;19;18;
62236;PMS5003;69163;48.778;2.308;2024-01-16T02:20:24;19;19;
62236;PMS5003;69163;48.778;2.308;2024-01-16T02:22:49;19;15;
62236;PMS5003;69163;48.778;2.308;2024-01-16T02:25:14;18;16;
62236;PMS5003;69163;48.778;2.308;2024-01-16T02:27:40;19;18;
62236;PMS5003;69163;48.778;2.308;2024-01-16T02:30:07;20;19;
62236;PMS5003;69163;48.778;2.308;2024-01-16T02:32:30;17;15;
62236;PMS5003;69163;48.778;2.308;2024-01-16T02:34:56;20;19;
62236;PMS5003;69163;48.778;2.308;2024-01-16T02:37:22;18;15;
62236;PMS5003;69163;48.778;2.308;2024-01-16T02:39:48;16;15;
62236;PMS5003;69163;48.778;2.308;2024-01-16T02:42:14;15;15;
62236;PMS5003;69163;48.778;2.308;2024-01-16T02:44:39;18;17;
62236;PMS5003;69163;48.778;2.308;2024-01-16T02:47:04;20;20;
62236;PMS5003;69163;48.778;2.308;2024-01-16T02:49:30;16;16;
62236;PMS5003;69163;48.778;2.308;2024-01-16T02:51:56;20;20;
62236;PMS5003;69163;48.778;2.308;2024-01-16T02:54:23;18;17;
62236;PMS5003;69163;48.778;2.308;2024-01-16T02:56:47;18;17;
62236;PMS5003;69163;48.778;2.308;2024-01-16T02:59:12;16;16;
62236;PMS5003;69163;48.778;2.308;2024-01-16T03:01:38;17;16;
62236;PMS5003;69163;48.778;2.308;2024-01-16T03:04:04;20;19;
62236;PMS5003;69163;48.778;2.308;2024-01-16T03:06:29;15;15;
62236;PMS5003;69163;48.778;2.308;2024-01-16T03:08:54;20;18;
62236;PMS5003;69163;48.778;2.308;2024-01-16T03:11:20;20;20;
62236;PMS5003;69163;48.778;2.308;2024-01-16T03:13:45;18;18;
62236;PMS5003;69163;48.778;2.308;2024-01-16T03:16:15;16;16;
62236;PMS5003;69163;48.778;2.308;2024-01-16T03:18:35;16;16;
62236;PMS5003;69163;48.778;2.308;2024-01-16T03:21:00;18;17;
62236;PMS5003;69163;48.778;2.308;2024-01-16T03:23:26;20;17;
62236;PMS5003;69163;48.778;2.308;2024-01-16T03:25:51;20;20;
62236;PMS5003;69163;48.778;2.308;2024-01-16T03:28:17;19;18;
62236;PMS5003;69163;48.778;2.308;2024-01-16T03:30:42;16;16;
62236;PMS5003;69163;48.778;2.308;2024-01-16T03:33:08;17;17;
62236;PMS5003;69163;48.778;2.308;2024-01-16T03:35:33;19;19;
62236;PMS5003;69163;48.778;2.308;2024-01-16T03:37:59;19;19;
62236;PMS5003;69163;48.778;2.308;2024-01-16T03:40:25;17;15;
62236;PMS5003;69163;48.778;2.308;2024-01-16T03:42:50;18;18;
62236;PMS5003;69163;48.778;2.308;2024-01-16T03:45:15;16;16;
62236;PMS5003;69163;48.778;2.308;2024-01-16T03:47:40;20;17;
62236;PMS5003;69163;48.778;2.308;2024-01-16T03:50:06;22;18;
62236;PMS5003;69163;48.778;2.308;2024-01-16T03:52:32;22;18;
62236;PMS5003;69163;48.778;2.308;2024-01-16T03:54:56;16;16;
62236;PMS5003;69163;48.778;2.308;2024-01-16T03:57:22;17;17;
62236;PMS5003;69163;48.778;2.308;2024-01-16T03:59:47;18;15;
62236;PMS5003;69163;48.778;2.308;2024-01-16T04:02:12;16;16;
62236;PMS5003;69163;48.778;2.308;2024-01-16T04:04:37;18;17;
62236;PMS5003;69163;48.778;2.308;2024-01-16T04:07:02;18;16;
62236;PMS5003;69163;48.778;2.308;2024-01-16T04:09:28;18;17;
62236;PMS5003;69163;48.778;2.308;2024-01-16T04:11:53;19;19;
62236;PMS5003;69163;48.778;2.308;2024-01-16T04:14:18;17;17;
62236;PMS5003;69163;48.778;2.308;2024-01-16T04:16:45;17;16;
62236;PMS5003;69163;48.778;2.308;2024-01-16T04:19:09;23;20;
62236;PMS5003;69163;48.778;2.308;2024-01-16T04:21:35;16;16;
62236;PMS5003;69163;48.778;2.308;2024-01-16T04:24:00;21;20;
62236;PMS5003;69163;48.778;2.308;2024-01-16T04:26:25;16;15;
62236;PMS5003;69163;48.778;2.308;2024-01-16T04:28:51;20;19;
62236;PMS5003;69163;48.778;2.308;2024-01-16T04:31:16;19;18;
62236;PMS5003;69163;48.778;2.308;2024-01-16T04:33:41;17;17;
62236;PMS5003;69163;48.778;2.308;2024-01-16T04:36:07;17;14;
62236;PMS5003;69163;48.778;2.308;2024-01-16T04:38:31;18;17;
62236;PMS5003;69163;48.778;2.308;2024-01-16T04:41:01;22;18;
62236;PMS5003;69163;48.778;2.308;2024-01-16T04:43:23;17;17;
62236;PMS5003;69163;48.778;2.308;2024-01-16T04:45:48;19;18;
62236;PMS5003;69163;48.778;2.308;2024-01-16T04:48:14;18;17;
62236;PMS5003;69163;48.778;2.308;2024-01-16T04:50:40;20;20;
62236;PMS5003;69163;48.778;2.308;2024-01-16T04:53:05;17;17;
62236;PMS5003;69163;48.778;2.308;2024-01-16T04:55:30;17;17;
62236;PMS5003;69163;48.778;2.308;2024-01-16T04:57:56;18;17;
62236;PMS5003;69163;48.778;2.308;2024-01-16T05:00:21;17;17;
62236;PMS5003;69163;48.778;2.308;2024-01-16T05:02:47;17;17;
62236;PMS5003;69163;48.778;2.308;2024-01-16T05:05:13;17;17;
62236;PMS5003;69163;48.778;2.308;2024-01-16T05:07:38;18;16;
62236;PMS5003;69163;48.778;2.308;2024-01-16T05:10:04;16;15;
62236;PMS5003;69163;48.778;2.308;2024-01-16T05:12:29;16;16;
62236;PMS5003;69163;48.778;2.308;2024-01-16T05:14:54;21;18;
62236;PMS5003;69163;48.778;2.308;2024-01-16T05:17:20;20;16;
62236;PMS5003;69163;48.778;2.308;2024-01-16T05:19:45;15;15;
62236;PMS5003;69163;48.778;2.308;2024-01-16T05:22:10;20;18;
62236;PMS5003;69163;48.778;2.308;2024-01-16T05:24:35;17;17;
62236;PMS5003;69163;48.778;2.308;2024-01-16T05:27:02;19;19;
62236;PMS5003;69163;48.778;2.308;2024-01-16T05:29:28;16;16;
62236;PMS5003;69163;48.778;2.308;2024-01-16T05:31:52;17;17;
62236;PMS5003;69163;48.778;2.308;2024-01-16T05:34:19;17;15;
62236;PMS5003;69163;48.778;2.308;2024-01-16T05:36:44;18;18;
62236;PMS5003;69163;48.778;2.308;2024-01-16T05:39:09;16;16;
62236;PMS5003;69163;48.778;2.308;2024-01-16T05:41:35;16;16;
62236;PMS5003;69163;48.778;2.308;2024-01-16T05:44:00;17;16;
62236;PMS5003;69163;48.778;2.308;2024-01-16T05:46:25;20;18;
62236;PMS5003;69163;48.778;2.308;2024-01-16T05:48:51;17;17;
62236;PMS5003;69163;48.778;2.308;2024-01-16T05:51:16;18;17;
62236;PMS5003;69163;48.778;2.308;2024-01-16T05:53:42;15;15;
62236;PMS5003;69163;48.778;2.308;2024-01-16T05:56:07;16;15;
62236;PMS5003;69163;48.778;2.308;2024-01-16T05:58:32;17;17;
62236;PMS5003;69163;48.778;2.308;2024-01-16T06:00:58;20;16;
62236;PMS5003;69163;48.778;2.308;2024-01-16T06:03:23;23;21;
62236;PMS5003;69163;48.778;2.308;2024-01-16T06:05:49;16;16;
62236;PMS5003;69163;48.778;2.308;2024-01-16T06:08:14;18;16;
62236;PMS5003;69163;48.778;2.308;2024-01-16T06:10:39;19;19;
62236;PMS5003;69163;48.778;2.308;2024-01-16T06:13:05;16;16;
62236;PMS5003;69163;48.778;2.308;2024-01-16T06:15:30;17;17;
62236;PMS5003;69163;48.778;2.308;2024-01-16T06:17:55;17;17;
62236;PMS5003;69163;48.778;2.308;2024-01-16T06:20:21;18;18;
62236;PMS5003;69163;48.778;2.308;2024-01-16T06:22:46;16;15;
62236;PMS5003;69163;48.778;2.308;2024-01-16T06:25:12;15;15;
62236;PMS5003;69163;48.778;2.308;2024-01-16T06:27:38;18;18;
62236;PMS5003;69163;48.778;2.308;2024-01-16T06:30:03;16;15;
62236;PMS5003;69163;48.778;2.308;2024-01-16T06:32:28;19;18;
62236;PMS5003;69163;48.778;2.308;2024-01-16T06:34:53;18;17;
62236;PMS5003;69163;48.778;2.308;2024-01-16T06:37:18;18;18;
62236;PMS5003;69163;48.778;2.308;2024-01-16T06:39:44;16;15;
62236;PMS5003;69163;48.778;2.308;2024-01-16T06:42:10;20;17;
62236;PMS5003;69163;48.778;2.308;2024-01-16T06:44:34;14;14;
62236;PMS5003;69163;48.778;2.308;2024-01-16T06:46:59;17;17;
62236;PMS5003;69163;48.778;2.308;2024-01-16T06:49:25;16;16;
62236;PMS5003;69163;48.778;2.308;2024-01-16T06:51:50;17;17;
62236;PMS5003;69163;48.778;2.308;2024-01-16T06:54:16;19;18;
62236;PMS5003;69163;48.778;2.308;2024-01-16T06:56:42;17;17;
62236;PMS5003;69163;48.778;2.308;2024-01-16T06:59:07;18;18;
62236;PMS5003;69163;48.778;2.308;2024-01-16T07:01:32;19;17;
62236;PMS5003;69163;48.778;2.308;2024-01-16T07:03:58;17;17;
62236;PMS5003;69163;48.778;2.308;2024-01-16T07:06:23;19;18;
62236;PMS5003;69163;48.778;2.308;2024-01-16T07:08:48;22;22;
62236;PMS5003;69163;48.778;2.308;2024-01-16T07:11:13;16;15;
62236;PMS5003;69163;48.778;2.308;2024-01-16T07:13:39;17;15;
62236;PMS5003;69163;48.778;2.308;2024-01-16T07:16:04;19;17;
62236;PMS5003;69163;48.778;2.308;2024-01-16T07:18:30;18;16;
62236;PMS5003;69163;48.778;2.308;2024-01-16T07:20:54;20;19;
62236;PMS5003;69163;48.778;2.308;2024-01-16T07:23:20;19;18;
62236;PMS5003;69163;48.778;2.308;2024-01-16T07:25:44;18;18;
62236;PMS5003;69163;48.778;2.308;2024-01-16T07:28:10;18;18;
62236;PMS5003;69163;48.778;2.308;2024-01-16T07:30:35;18;18;
62236;PMS5003;69163;48.778;2.308;2024-01-16T07:33:00;16;16;
62236;PMS5003;69163;48.778;2.308;2024-01-16T07:35:26;18;18;
62236;PMS5003;69163;48.778;2.308;2024-01-16T07:37:51;18;18;
62236;PMS5003;69163;48.778;2.308;2024-01-16T07:40:16;18;18;
62236;PMS5003;69163;48.778;2.308;2024-01-16T07:42:42;20;17;
62236;PMS5003;69163;48.778;2.308;2024-01-16T07:45:07;17;17;
62236;PMS5003;69163;48.778;2.308;2024-01-16T07:47:32;19;17;
62236;PMS5003;69163;48.778;2.308;2024-01-16T07:49:57;15;15;
62236;PMS5003;69163;48.778;2.308;2024-01-16T07:52:23;19;17;
62236;PMS5003;69163;48.778;2.308;2024-01-16T07:54:49;17;17;
62236;PMS5003;69163;48.778;2.308;2024-01-16T07:57:14;16;15;
62236;PMS5003;69163;48.778;2.308;2024-01-16T07:59:40;16;16;
62236;PMS5003;69163;48.778;2.308;2024-01-16T08:02:06;19;17;
62236;PMS5003;69163;48.778;2.308;2024-01-16T08:04:32;21;21;
62236;PMS5003;69163;48.778;2.308;2024-01-16T08:06:58;20;18;
62236;PMS5003;69163;48.778;2.308;2024-01-16T08:09:23;21;20;
62236;PMS5003;69163;48.778;2.308;2024-01-16T08:11:48;19;18;
62236;PMS5003;69163;48.778;2.308;2024-01-16T08:14:14;21;20;
62236;PMS5003;69163;48.778;2.308;2024-01-16T08:16:40;18;18;
62236;PMS5003;69163;48.778;2.308;2024-01-16T08:19:06;21;20;
62236;PMS5003;69163;48.778;2.308;2024-01-16T08:21:31;22;21;
62236;PMS5003;69163;48.778;2.308;2024-01-16T08:23:57;25;25;
62236;PMS5003;69163;48.778;2.308;2024-01-16T08:26:22;24;22;
62236;PMS5003;69163;48.778;2.308;2024-01-16T08:28:48;22;18;
62236;PMS5003;69163;48.778;2.308;2024-01-16T08:31:16;25;22;
62236;PMS5003;69163;48.778;2.308;2024-01-16T08:33:38;22;21;
62236;PMS5003;69163;48.778;2.308;2024-01-16T08:36:04;21;19;
62236;PMS5003;69163;48.778;2.308;2024-01-16T08:38:30;23;20;
62236;PMS5003;69163;48.778;2.308;2024-01-16T08:40:55;18;18;
62236;PMS5003;69163;48.778;2.308;2024-01-16T08:43:20;20;20;
62236;PMS5003;69163;48.778;2.308;2024-01-16T08:45:45;23;21;
62236;PMS5003;69163;48.778;2.308;2024-01-16T08:48:10;22;20;
62236;PMS5003;69163;48.778;2.308;2024-01-16T08:50:36;24;22;
62236;PMS5003;69163;48.778;2.308;2024-01-16T08:53:01;26;22;
62236;PMS5003;69163;48.778;2.308;2024-01-16T08:55:27;28;23;
62236;PMS5003;69163;48.778;2.308;2024-01-16T08:57:52;22;22;
62236;PMS5003;69163;48.778;2.308;2024-01-16T09:00:17;27;24;
62236;PMS5003;69163;48.778;2.308;2024-01-16T09:02:43;24;24;
62236;PMS5003;69163;48.778;2.308;2024-01-16T09:05:08;24;23;
62236;PMS5003;69163;48.778;2.308;2024-01-16T09:07:33;29;28;
62236;PMS5003;69163;48.778;2.308;2024-01-16T09:09:58;25;23;
62236;PMS5003;69163;48.778;2.308;2024-01-16T09:12:24;31;29;
62236;PMS5003;69163;48.778;2.308;2024-01-16T09:14:49;30;28;
62236;PMS5003;69163;48.778;2.308;2024-01-16T09:17:15;31;28;
62236;PMS5003;69163;48.778;2.308;2024-01-16T09:19:42;29;28;
62236;PMS5003;69163;48.778;2.308;2024-01-16T09:22:06;28;28;
62236;PMS5003;69163;48.778;2.308;2024-01-16T09:24:32;33;30;
62236;PMS5003;69163;48.778;2.308;2024-01-16T09:26:58;32;31;
62236;PMS5003;69163;48.778;2.308;2024-01-16T09:29:23;31;30;
62236;PMS5003;69163;48.778;2.308;2024-01-16T09:31:48;33;31;
62236;PMS5003;69163;48.778;2.308;2024-01-16T09:34:14;32;31;
62236;PMS5003;69163;48.778;2.308;2024-01-16T09:36:40;32;31;
62236;PMS5003;69163;48.778;2.308;2024-01-16T09:39:06;37;31;
62236;PMS5003;69163;48.778;2.308;2024-01-16T09:41:32;34;31;
62236;PMS5003;69163;48.778;2.308;2024-01-16T09:43:57;34;34;
62236;PMS5003;69163;48.778;2.308;2024-01-16T09:46:23;34;33;
62236;PMS5003;69163;48.778;2.308;2024-01-16T09:48:48;37;35;
62236;PMS5003;69163;48.778;2.308;2024-01-16T09:51:13;32;30;
62236;PMS5003;69163;48.778;2.308;2024-01-16T09:53:39;35;32;
62236;PMS5003;69163;48.778;2.308;2024-01-16T09:56:05;34;33;
62236;PMS5003;69163;48.778;2.308;2024-01-16T09:58:30;43;37;
62236;PMS5003;69163;48.778;2.308;2024-01-16T10:00:55;40;37;
62236;PMS5003;69163;48.778;2.308;2024-01-16T10:03:20;36;34;
62236;PMS5003;69163;48.778;2.308;2024-01-16T10:05:46;40;36;
62236;PMS5003;69163;48.778;2.308;2024-01-16T10:08:12;36;36;
62236;PMS5003;69163;48.778;2.308;2024-01-16T10:10:37;40;37;
62236;PMS5003;69163;48.778;2.308;2024-01-16T10:13:03;40;39;
62236;PMS5003;69163;48.778;2.308;2024-01-16T10:15:28;45;40;
62236;PMS5003;69163;48.778;2.308;2024-01-16T10:17:53;40;37;
62236;PMS5003;69163;48.778;2.308;2024-01-16T10:25:09;46;42;
62236;PMS5003;69163;48.778;2.308;2024-01-16T10:27:35;40;39;
62236;PMS5003;69163;48.778;2.308;2024-01-16T10:30:00;39;37;
62236;PMS5003;69163;48.778;2.308;2024-01-16T10:32:27;47;45;
62236;PMS5003;69163;48.778;2.308;2024-01-16T10:34:54;42;42;
62236;PMS5003;69163;48.778;2.308;2024-01-16T10:37:16;39;39;
62236;PMS5003;69163;48.778;2.308;2024-01-16T10:39:41;46;42;
62236;PMS5003;69163;48.778;2.308;2024-01-16T10:42:06;45;41;
62236;PMS5003;69163;48.778;2.308;2024-01-16T10:44:32;42;42;
62236;PMS5003;69163;48.778;2.308;2024-01-16T10:49:23;41;41;
62236;PMS5003;69163;48.778;2.308;2024-01-16T10:51:49;43;41;
62236;PMS5003;69163;48.778;2.308;2024-01-16T10:54:14;42;41;
62236;PMS5003;69163;48.778;2.308;2024-01-16T10:56:41;39;36;
62236;PMS5003;69163;48.778;2.308;2024-01-16T10:59:06;43;42;
62236;PMS5003;69163;48.778;2.308;2024-01-16T11:01:30;39;39;
62236;PMS5003;69163;48.778;2.308;2024-01-16T11:03:55;41;39;
62236;PMS5003;69163;48.778;2.308;2024-01-16T11:06:21;38;38;
62236;PMS5003;69163;48.778;2.308;2024-01-16T11:08:47;41;39;
62236;PMS5003;69163;48.778;2.308;2024-01-16T11:11:11;44;40;
62236;PMS5003;69163;48.778;2.308;2024-01-16T11:13:37;40;38;
62236;PMS5003;69163;48.778;2.308;2024-01-16T11:16:02;44;43;
62236;PMS5003;69163;48.778;2.308;2024-01-16T11:18:27;42;39;
62236;PMS5003;69163;48.778;2.308;2024-01-16T11:20:54;43;39;
62236;PMS5003;69163;48.778;2.308;2024-01-16T11:23:19;39;39;
62236;PMS5003;69163;48.778;2.308;2024-01-16T11:25:44;40;39;
62236;PMS5003;69163;48.778;2.308;2024-01-16T11:28:10;40;40;
62236;PMS5003;69163;48.778;2.308;2024-01-16T11:30:35;45;40;
62236;PMS5003;69163;48.778;2.308;2024-01-16T11:33:01;44;41;
62236;PMS5003;69163;48.778;2.308;2024-01-16T11:37:52;41;38;
62236;PMS5003;69163;48.778;2.308;2024-01-16T11:40:21;40;39;
62236;PMS5003;69163;48.778;2.308;2024-01-16T11:42:41;36;35;
62236;PMS5003;69163;48.778;2.308;2024-01-16T11:45:08;38;38;
62236;PMS5003;69163;48.778;2.308;2024-01-16T11:47:33;45;40;
62236;PMS5003;69163;48.778;2.308;2024-01-16T11:54:49;38;35;
62236;PMS5003;69163;48.778;2.308;2024-01-16T11:57:25;33;33;
62236;PMS5003;69163;48.778;2.308;2024-01-16T11:59:43;41;40;
62236;PMS5003;69163;48.778;2.308;2024-01-16T12:02:05;43;40;
62236;PMS5003;69163;48.778;2.308;2024-01-16T12:04:31;38;36;
62236;PMS5003;69163;48.778;2.308;2024-01-16T12:06:57;40;39;
62236;PMS5003;69163;48.778;2.308;2024-01-16T12:09:22;41;37;
62236;PMS5003;69163;48.778;2.308;2024-01-16T12:14:12;37;34;
62236;PMS5003;69163;48.778;2.308;2024-01-16T12:16:38;35;34;
62236;PMS5003;69163;48.778;2.308;2024-01-16T12:19:04;35;33;
62236;PMS5003;69163;48.778;2.308;2024-01-16T12:21:30;32;31;
62236;PMS5003;69163;48.778;2.308;2024-01-16T12:23:55;32;30;
62236;PMS5003;69163;48.778;2.308;2024-01-16T12:26:21;34;34;
62236;PMS5003;69163;48.778;2.308;2024-01-16T12:28:50;34;34;
62236;PMS5003;69163;48.778;2.308;2024-01-16T12:31:17;30;29;
62236;PMS5003;69163;48.778;2.308;2024-01-16T12:33:38;33;33;
62236;PMS5003;69163;48.778;2.308;2024-01-16T12:36:04;32;31;
62236;PMS5003;69163;48.778;2.308;2024-01-16T12:38:29;29;28;
62236;PMS5003;69163;48.778;2.308;2024-01-16T12:40:55;27;27;
62236;PMS5003;69163;48.778;2.308;2024-01-16T12:43:21;32;30;
62236;PMS5003;69163;48.778;2.308;2024-01-16T12:45:46;30;29;
62236;PMS5003;69163;48.778;2.308;2024-01-16T12:48:11;33;29;
62236;PMS5003;69163;48.778;2.308;2024-01-16T12:50:37;30;30;
62236;PMS5003;69163;48.778;2.308;2024-01-16T12:53:03;25;25;
62236;PMS5003;69163;48.778;2.308;2024-01-16T12:55:28;33;27;
62236;PMS5003;69163;48.778;2.308;2024-01-16T13:00:21;25;24;
62236;PMS5003;69163;48.778;2.308;2024-01-16T13:02:49;26;26;
62236;PMS5003;69163;48.778;2.308;2024-01-16T13:05:10;27;26;
62236;PMS5003;69163;48.778;2.308;2024-01-16T13:07:35;23;23;
62236;PMS5003;69163;48.778;2.308;2024-01-16T13:12:26;22;22;
62236;PMS5003;69163;48.778;2.308;2024-01-16T13:14:51;23;23;
62236;PMS5003;69163;48.778;2.308;2024-01-16T13:17:17;27;23;
62236;PMS5003;69163;48.778;2.308;2024-01-16T13:19:42;25;24;
62236;PMS5003;69163;48.778;2.308;2024-01-16T13:22:09;22;20;
62236;PMS5003;69163;48.778;2.308;2024-01-16T13:24:33;22;22;
62236;PMS5003;69163;48.778;2.308;2024-01-16T13:26:58;22;21;
62236;PMS5003;69163;48.778;2.308;2024-01-16T13:29:24;21;21;
62236;PMS5003;69163;48.778;2.308;2024-01-16T13:31:49;19;19;
62236;PMS5003;69163;48.778;2.308;2024-01-16T13:34:14;23;21;
62236;PMS5003;69163;48.778;2.308;2024-01-16T13:36:39;18;18;
62236;PMS5003;69163;48.778;2.308;2024-01-16T13:39:05;22;22;
62236;PMS5003;69163;48.778;2.308;2024-01-16T13:41:30;21;21;
62236;PMS5003;69163;48.778;2.308;2024-01-16T13:43:56;19;19;
62236;PMS5003;69163;48.778;2.308;2024-01-16T13:46:21;24;22;
62236;PMS5003;69163;48.778;2.308;2024-01-16T13:48:46;23;21;
62236;PMS5003;69163;48.778;2.308;2024-01-16T13:51:11;21;19;
62236;PMS5003;69163;48.778;2.308;2024-01-16T13:53:37;16;15;
62236;PMS5003;69163;48.778;2.308;2024-01-16T13:56:03;16;16;
62236;PMS5003;69163;48.778;2.308;2024-01-16T13:58:29;19;19;
62236;PMS5003;69163;48.778;2.308;2024-01-16T14:00:54;20;18;
62236;PMS5003;69163;48.778;2.308;2024-01-16T14:03:20;21;18;
62236;PMS5003;69163;48.778;2.308;2024-01-16T14:05:45;18;18;
62236;PMS5003;69163;48.778;2.308;2024-01-16T14:08:10;20;19;
62236;PMS5003;69163;48.778;2.308;2024-01-16T14:10:36;16;14;
62236;PMS5003;69163;48.778;2.308;2024-01-16T14:13:01;16;15;
62236;PMS5003;69163;48.778;2.308;2024-01-16T14:15:26;20;17;
62236;PMS5003;69163;48.778;2.308;2024-01-16T14:17:52;19;17;
62236;PMS5003;69163;48.778;2.308;2024-01-16T14:20:17;20;17;
62236;PMS5003;69163;48.778;2.308;2024-01-16T14:22:43;21;18;
62236;PMS5003;69163;48.778;2.308;2024-01-16T14:25:09;18;18;
62236;PMS5003;69163;48.778;2.308;2024-01-16T14:27:34;19;18;
62236;PMS5003;69163;48.778;2.308;2024-01-16T14:29:59;15;15;
62236;PMS5003;69163;48.778;2.308;2024-01-16T14:32:25;16;16;
62236;PMS5003;69163;48.778;2.308;2024-01-16T14:34:51;16;15;
62236;PMS5003;69163;48.778;2.308;2024-01-16T14:37:16;20;17;
62236;PMS5003;69163;48.778;2.308;2024-01-16T14:39:41;16;14;
62236;PMS5003;69163;48.778;2.308;2024-01-16T14:42:07;19;17;
62236;PMS5003;69163;48.778;2.308;2024-01-16T14:44:32;15;15;
62236;PMS5003;69163;48.778;2.308;2024-01-16T14:46:57;16;14;
62236;PMS5003;69163;48.778;2.308;2024-01-16T14:49:23;14;14;
62236;PMS5003;69163;48.778;2.308;2024-01-16T14:51:48;15;15;
62236;PMS5003;69163;48.778;2.308;2024-01-16T14:54:14;12;12;
62236;PMS5003;69163;48.778;2.308;2024-01-16T14:56:39;15;14;
62236;PMS5003;69163;48.778;2.308;2024-01-16T14:59:05;16;15;
62236;PMS5003;69163;48.778;2.308;2024-01-16T15:01:30;16;16;
62236;PMS5003;69163;48.778;2.308;2024-01-16T15:03:56;13;12;
62236;PMS5003;69163;48.778;2.308;2024-01-16T15:08:47;12;12;
62236;PMS5003;69163;48.778;2.308;2024-01-16T15:11:13;14;14;
62236;PMS5003;69163;48.778;2.308;2024-01-16T15:13:38;13;11;
62236;PMS5003;69163;48.778;2.308;2024-01-16T15:16:03;12;12;
62236;PMS5003;69163;48.778;2.308;2024-01-16T15:18:28;18;12;
62236;PMS5003;69163;48.778;2.308;2024-01-16T15:20:54;15;12;
62236;PMS5003;69163;48.778;2.308;2024-01-16T15:23:22;15;15;
62236;PMS5003;69163;48.778;2.308;2024-01-16T15:25:45;13;13;
62236;PMS5003;69163;48.778;2.308;2024-01-16T15:28:10;11;11;
62236;PMS5003;69163;48.778;2.308;2024-01-16T15:30:35;12;12;
62236;PMS5003;69163;48.778;2.308;2024-01-16T15:33:01;17;13;
62236;PMS5003;69163;48.778;2.308;2024-01-16T15:35:26;10;10;
62236;PMS5003;69163;48.778;2.308;2024-01-16T15:37:51;13;12;
62236;PMS5003;69163;48.778;2.308;2024-01-16T15:40:17;14;13;
62236;PMS5003;69163;48.778;2.308;2024-01-16T15:42:43;11;11;
62236;PMS5003;69163;48.778;2.308;2024-01-16T15:45:09;13;13;
62236;PMS5003;69163;48.778;2.308;2024-01-16T15:47:35;12;12;
62236;PMS5003;69163;48.778;2.308;2024-01-16T15:49:59;12;11;
62236;PMS5003;69163;48.778;2.308;2024-01-16T15:52:24;11;10;
62236;PMS5003;69163;48.778;2.308;2024-01-16T15:54:50;12;11;
62236;PMS5003;69163;48.778;2.308;2024-01-16T15:57:15;10;10;
62236;PMS5003;69163;48.778;2.308;2024-01-16T15:59:41;12;12;
62236;PMS5003;69163;48.778;2.308;2024-01-16T16:02:06;13;13;
62236;PMS5003;69163;48.778;2.308;2024-01-16T16:04:31;16;16;
62236;PMS5003;69163;48.778;2.308;2024-01-16T16:06:57;12;12;
62236;PMS5003;69163;48.778;2.308;2024-01-16T16:09:22;9;9;
62236;PMS5003;69163;48.778;2.308;2024-01-16T16:11:48;11;11;
62236;PMS5003;69163;48.778;2.308;2024-01-16T16:14:13;11;11;
62236;PMS5003;69163;48.778;2.308;2024-01-16T16:16:39;13;11;
62236;PMS5003;69163;48.778;2.308;2024-01-16T16:19:03;10;10;
62236;PMS5003;69163;48.778;2.308;2024-01-16T16:21:28;13;11;
62236;PMS5003;69163;48.778;2.308;2024-01-16T16:23:54;12;12;
62236;PMS5003;69163;48.778;2.308;2024-01-16T16:26:29;12;10;
62236;PMS5003;69163;48.778;2.308;2024-01-16T16:28:44;11;11;
62236;PMS5003;69163;48.778;2.308;2024-01-16T16:31:09;9;9;